Time;durP1;ratioP1;P1;durP2;ratioP2;P2;SDS_P1;SDS_P2;PMS_P1;PMS_P2;Temp;Humidity;BMP_temperature;BMP_pressure;BME280_temperature;BME280_humidity;BME280_pressure;Samples;Min_cycle;Max_cycle;Signal;HPM_P1;HPM_P2
2024/03/03 00:00:14;;;;;;;12.88;8.40;;;;;;;9.92;68.69;99358.41;5002547;28;20054;-84
2024/03/03 00:02:41;;;;;;;11.85;8.73;;;;;;;9.91;68.73;99360.22;5004180;28;20055;-85
2024/03/03 00:05:08;;;;;;;13.00;8.88;;;;;;;9.85;68.88;99355.56;5002681;28;20050;-83
2024/03/03 00:07:35;;;;;;;11.18;7.82;;;;;;;9.84;68.81;99361.84;5002991;28;20046;-83
2024/03/03 00:10:03;;;;;;;12.27;8.98;;;;;;;9.78;69.16;99351.94;5002807;28;20054;-83
2024/03/03 00:12:30;;;;;;;13.35;9.02;;;;;;;9.74;69.61;99350.59;4996363;28;20116;-83
2024/03/03 00:14:57;;;;;;;11.75;8.23;;;;;;;9.68;69.42;99352.03;5003840;28;20081;-84
2024/03/03 00:17:24;;;;;;;10.95;7.90;;;;;;;9.70;69.58;99352.72;5003690;28;20054;-85
2024/03/03 00:19:51;;;;;;;11.82;8.75;;;;;;;9.68;69.89;99357.31;5006726;28;20114;-85
2024/03/03 00:22:17;;;;;;;12.23;8.48;;;;;;;9.57;69.97;99347.88;5008908;28;20076;-85
2024/03/03 00:24:44;;;;;;;14.27;9.27;;;;;;;9.56;70.08;99348.06;5006627;28;20061;-85
2024/03/03 00:27:15;;;;;;;13.80;9.43;;;;;;;9.52;70.58;99350.19;5003665;28;20082;-85
2024/03/03 00:29:42;;;;;;;12.75;9.43;;;;;;;9.59;70.13;99358.28;5003045;28;20054;-85
2024/03/03 00:32:10;;;;;;;13.75;9.35;;;;;;;9.44;71.26;99351.97;5000823;28;20054;-84
2024/03/03 00:34:36;;;;;;;16.20;9.63;;;;;;;9.46;71.42;99357.91;5001789;28;20054;-86
2024/03/03 00:37:03;;;;;;;13.98;9.88;;;;;;;9.46;71.06;99352.63;4999973;28;20141;-85
2024/03/03 00:39:30;;;;;;;12.02;9.40;;;;;;;9.50;71.64;99357.41;4999507;28;20457;-83
2024/03/03 00:41:57;;;;;;;16.55;10.18;;;;;;;9.60;71.06;99344.94;5005804;28;20129;-85
2024/03/03 00:44:31;;;;;;;14.65;9.93;;;;;;;9.61;70.82;99341.31;5011415;28;20057;-84
2024/03/03 00:46:57;;;;;;;12.32;9.65;;;;;;;9.76;70.30;99345.97;5011306;28;20134;-84
2024/03/03 00:49:24;;;;;;;13.77;9.57;;;;;;;9.78;70.71;99352.75;5009218;28;20054;-84
2024/03/03 00:51:54;;;;;;;14.52;9.80;;;;;;;9.83;70.51;99341.72;5005539;28;20046;-85
2024/03/03 00:54:23;;;;;;;14.13;9.77;;;;;;;9.84;70.21;99346.00;5006218;28;20054;-82
2024/03/03 00:56:50;;;;;;;14.68;9.77;;;;;;;9.94;69.86;99333.47;5005903;28;20484;-83
2024/03/03 00:59:19;;;;;;;12.93;9.52;;;;;;;9.98;69.66;99337.44;5006396;28;20046;-82
2024/03/03 01:01:47;;;;;;;14.32;10.05;;;;;;;10.00;70.02;99338.13;5006520;28;20069;-82
2024/03/03 01:04:14;;;;;;;14.43;10.30;;;;;;;10.04;69.49;99341.25;5006820;28;20081;-80
2024/03/03 01:06:41;;;;;;;15.45;10.13;;;;;;;10.06;69.55;99329.53;5007157;28;20089;-83
2024/03/03 01:09:08;;;;;;;13.63;9.82;;;;;;;10.18;68.93;99326.56;5009895;28;20129;-83
2024/03/03 01:11:35;;;;;;;14.57;10.18;;;;;;;10.17;68.42;99330.19;5010390;28;20038;-82
2024/03/03 01:14:02;;;;;;;14.48;10.38;;;;;;;10.21;68.71;99331.53;5010832;28;20054;-83
2024/03/03 01:16:29;;;;;;;13.38;10.23;;;;;;;10.16;68.60;99317.97;5010344;28;20089;-84
2024/03/03 01:18:59;;;;;;;13.18;9.02;;;;;;;10.20;68.42;99322.78;5011771;28;20073;-82
2024/03/03 01:21:28;;;;;;;15.43;10.65;;;;;;;10.20;68.27;99329.88;5012172;28;20064;-83
2024/03/03 01:23:56;;;;;;;12.27;9.32;;;;;;;10.17;68.72;99316.97;5015663;28;20064;-84
2024/03/03 01:26:23;;;;;;;16.05;10.10;;;;;;;10.13;68.60;99330.53;5017273;28;20152;-86
2024/03/03 01:28:52;;;;;;;13.90;10.05;;;;;;;10.16;68.37;99333.84;5017663;28;20101;-85
2024/03/03 01:31:19;;;;;;;13.90;9.93;;;;;;;10.17;68.48;99330.19;5017679;28;20060;-85
2024/03/03 01:33:46;;;;;;;12.65;9.30;;;;;;;10.19;67.99;99331.69;5016773;28;20050;-85
2024/03/03 01:36:14;;;;;;;13.25;8.98;;;;;;;10.21;67.73;99320.94;5016386;28;20445;-83
2024/03/03 01:38:41;;;;;;;13.55;9.32;;;;;;;10.17;68.11;99324.91;5016989;28;20186;-82
2024/03/03 01:41:08;;;;;;;15.25;9.77;;;;;;;10.12;68.40;99318.28;5016378;28;20133;-84
2024/03/03 01:43:35;;;;;;;13.95;9.10;;;;;;;10.11;67.96;99326.41;5013812;28;20058;-85
2024/03/03 01:46:02;;;;;;;13.30;8.85;;;;;;;10.09;68.05;99334.50;5008649;28;20070;-85
2024/03/03 01:48:29;;;;;;;12.55;8.93;;;;;;;10.13;67.85;99324.41;4990163;28;20058;-85
2024/03/03 01:50:56;;;;;;;13.73;9.48;;;;;;;10.24;67.09;99333.84;5004562;28;20050;-83
2024/03/03 01:53:25;;;;;;;15.27;9.27;;;;;;;10.17;67.71;99335.47;5008816;28;20093;-84
2024/03/03 01:55:52;;;;;;;13.32;9.00;;;;;;;10.17;67.38;99323.09;5007421;28;20046;-84
2024/03/03 01:58:19;;;;;;;13.23;9.23;;;;;;;10.11;67.78;99321.09;5007819;28;20103;-82
2024/03/03 02:00:48;;;;;;;13.52;9.60;;;;;;;10.17;67.43;99324.91;5002085;28;20054;-84
2024/03/03 02:03:15;;;;;;;12.75;8.93;;;;;;;10.05;68.54;99332.34;5007027;28;20117;-84
2024/03/03 02:05:42;;;;;;;13.80;8.93;;;;;;;10.13;67.62;99314.69;5007911;28;20042;-84
2024/03/03 02:08:10;;;;;;;12.68;9.43;;;;;;;10.17;67.14;99314.34;5008109;28;20059;-85
2024/03/03 02:10:39;;;;;;;13.52;9.07;;;;;;;10.09;67.69;99323.09;5008060;28;20097;-83
2024/03/03 02:13:06;;;;;;;13.15;9.40;;;;;;;10.06;67.87;99312.84;5007687;28;20105;-84
2024/03/03 02:15:33;;;;;;;11.63;8.98;;;;;;;10.05;67.70;99313.84;5008428;28;20054;-84
2024/03/03 02:17:59;;;;;;;14.27;9.45;;;;;;;10.05;67.76;99321.78;5008748;28;20050;-84
2024/03/03 02:20:27;;;;;;;16.27;9.15;;;;;;;9.86;69.05;99323.69;5009592;28;20050;-83
2024/03/03 02:22:55;;;;;;;12.82;8.60;;;;;;;9.76;69.47;99317.72;5008345;28;20081;-85
2024/03/03 02:25:22;;;;;;;13.38;9.48;;;;;;;9.74;69.41;99316.25;5008483;28;20072;-81
2024/03/03 02:27:49;;;;;;;11.70;8.80;;;;;;;9.74;69.46;99316.25;5010113;28;20054;-84
2024/03/03 02:30:17;;;;;;;12.95;8.90;;;;;;;9.81;68.89;99325.16;5008567;28;20055;-84
2024/03/03 02:32:43;;;;;;;12.70;9.75;;;;;;;9.77;68.94;99323.84;5008458;28;20051;-85
2024/03/03 02:35:12;;;;;;;12.88;9.35;;;;;;;9.76;68.61;99333.59;5008171;28;20108;-85
2024/03/03 02:37:39;;;;;;;13.68;9.10;;;;;;;9.75;69.22;99331.94;5002077;28;20050;-84
2024/03/03 02:40:09;;;;;;;11.50;8.60;;;;;;;9.75;69.46;99328.47;5009262;28;20050;-84
2024/03/03 02:42:36;;;;;;;16.98;8.57;;;;;;;9.67;69.36;99333.72;5005797;28;20053;-84
2024/03/03 02:45:03;;;;;;;12.93;8.93;;;;;;;9.70;69.32;99333.41;5004601;28;20042;-85
2024/03/03 02:47:30;;;;;;;13.43;9.00;;;;;;;9.75;68.94;99320.53;4992149;28;20057;-85
2024/03/03 02:49:56;;;;;;;13.85;9.07;;;;;;;9.72;69.10;99320.84;5007919;28;20058;-82
2024/03/03 02:52:23;;;;;;;14.23;8.45;;;;;;;9.65;69.05;99317.22;5008590;28;20058;-84
2024/03/03 02:54:50;;;;;;;15.02;9.65;;;;;;;9.66;69.07;99310.94;5008455;28;20079;-81
2024/03/03 02:57:18;;;;;;;11.90;8.55;;;;;;;9.67;69.18;99309.94;5008477;28;20056;-86
2024/03/03 02:59:45;;;;;;;13.23;8.85;;;;;;;9.64;69.46;99313.72;5008888;28;20057;-84
2024/03/03 03:02:12;;;;;;;12.35;8.32;;;;;;;9.63;69.19;99309.44;5007781;28;20053;-85
2024/03/03 03:04:39;;;;;;;16.17;10.00;;;;;;;9.61;69.25;99299.03;5008896;28;20105;-84
2024/03/03 03:07:06;;;;;;;12.85;8.57;;;;;;;9.60;69.61;99302.69;5007882;28;20134;-84
2024/03/03 03:09:32;;;;;;;12.75;8.70;;;;;;;9.60;69.66;99307.97;5009426;28;20073;-81
2024/03/03 03:11:59;;;;;;;12.30;8.73;;;;;;;9.53;69.79;99311.41;5008398;28;20100;-82
2024/03/03 03:14:28;;;;;;;12.38;8.43;;;;;;;9.54;70.01;99310.41;5006547;28;20055;-84
2024/03/03 03:16:55;;;;;;;14.63;9.25;;;;;;;9.53;69.58;99311.41;5014688;28;20084;-83
2024/03/03 03:19:23;;;;;;;13.68;8.93;;;;;;;9.55;69.66;99315.53;5016711;28;20053;-81
2024/03/03 03:21:50;;;;;;;13.88;8.75;;;;;;;9.46;70.51;99315.66;5014673;28;20140;-84
2024/03/03 03:24:16;;;;;;;13.05;9.05;;;;;;;9.41;70.44;99318.75;5013939;28;20109;-84
2024/03/03 03:26:46;;;;;;;16.73;10.25;;;;;;;9.28;71.05;99321.84;5015296;28;20070;-83
2024/03/03 03:29:13;;;;;;;14.38;9.88;;;;;;;9.22;71.97;99330.41;5013443;28;20054;-85
2024/03/03 03:31:41;;;;;;;13.02;8.93;;;;;;;9.20;71.40;99326.28;5007872;28;20054;-85
2024/03/03 03:34:07;;;;;;;14.52;9.57;;;;;;;9.15;71.67;99326.72;5008712;28;20054;-84
2024/03/03 03:36:34;;;;;;;14.13;9.27;;;;;;;9.16;71.84;99319.66;5009998;28;20105;-84
2024/03/03 03:39:01;;;;;;;15.13;10.50;;;;;;;9.12;71.79;99329.69;5009567;28;20078;-83
2024/03/03 03:41:28;;;;;;;16.10;9.90;;;;;;;9.10;72.35;99332.47;5009776;28;20054;-85
2024/03/03 03:43:55;;;;;;;14.70;9.90;;;;;;;9.07;72.28;99340.72;5006698;28;20116;-85
2024/03/03 03:46:22;;;;;;;14.30;10.48;;;;;;;9.03;72.94;99346.47;5003738;28;20069;-84
2024/03/03 03:48:50;;;;;;;16.17;10.68;;;;;;;9.01;72.70;99349.25;5004047;28;20050;-84
2024/03/03 03:51:17;;;;;;;15.15;10.15;;;;;;;9.05;72.61;99347.94;5003117;28;20046;-83
2024/03/03 03:53:46;;;;;;;14.85;10.38;;;;;;;9.07;72.54;99348.66;5000164;28;20046;-84
2024/03/03 03:56:16;;;;;;;15.82;10.00;;;;;;;9.03;72.88;99355.22;5002734;28;20038;-85
2024/03/03 03:58:46;;;;;;;19.05;11.02;;;;;;;8.99;73.09;99351.22;5003873;28;20077;-85
2024/03/03 04:01:19;;;;;;;17.50;11.27;;;;;;;9.00;73.46;99352.88;5007293;28;20046;-85
2024/03/03 04:03:53;;;;;;;16.85;11.13;;;;;;;8.97;73.08;99358.44;5006088;28;20047;-85
2024/03/03 04:06:25;;;;;;;15.27;10.35;;;;;;;8.94;73.32;99361.44;5004351;28;20049;-85
2024/03/03 04:08:55;;;;;;;17.40;11.10;;;;;;;8.98;73.32;99361.94;5004295;28;20054;-85
2024/03/03 04:11:22;;;;;;;16.95;11.15;;;;;;;8.99;73.39;99372.34;5004232;28;20057;-87
2024/03/03 04:13:50;;;;;;;17.15;11.52;;;;;;;8.97;72.95;99366.38;5005132;28;20500;-85
2024/03/03 04:16:22;;;;;;;16.02;10.57;;;;;;;9.00;73.17;99378.44;5006262;28;20049;-87
2024/03/03 04:18:51;;;;;;;14.48;10.00;;;;;;;8.99;73.17;99367.06;5004095;28;20051;-86
2024/03/03 04:21:26;;;;;;;16.08;10.80;;;;;;;8.97;73.36;99371.66;5005832;28;20057;-85
2024/03/03 04:23:53;;;;;;;17.58;10.63;;;;;;;8.97;73.31;99389.28;5007386;28;20047;-86
2024/03/03 04:26:29;;;;;;;15.55;10.27;;;;;;;8.99;73.79;99382.06;5004116;28;20046;-85
2024/03/03 04:29:08;;;;;;;14.25;9.82;;;;;;;8.98;73.87;99380.41;5007265;28;20074;-84
2024/03/03 04:31:44;;;;;;;14.65;10.45;;;;;;;8.94;73.57;99373.78;5005897;28;20061;-86
2024/03/03 04:34:21;;;;;;;17.73;10.95;;;;;;;8.97;73.91;99384.84;5000074;28;20131;-86
2024/03/03 04:36:48;;;;;;;18.10;10.85;;;;;;;8.96;73.87;99387.66;5006615;28;20077;-86
2024/03/03 04:39:16;;;;;;;16.63;10.77;;;;;;;8.93;73.88;99388.78;5006579;28;20050;-86
2024/03/03 04:41:47;;;;;;;15.85;11.13;;;;;;;8.94;73.99;99379.91;5005751;28;20050;-86
2024/03/03 04:44:17;;;;;;;18.58;11.57;;;;;;;8.93;74.16;99374.75;5006689;28;20046;-87
2024/03/03 04:47:03;;;;;;;16.30;11.27;;;;;;;8.91;74.41;99374.91;5005746;28;20109;-85
2024/03/03 04:49:33;;;;;;;16.27;10.65;;;;;;;8.94;74.05;99373.78;4989683;28;20468;-87
2024/03/03 04:52:03;;;;;;;18.35;12.15;;;;;;;8.94;74.22;99369.34;5006039;28;20085;-86
2024/03/03 04:54:38;;;;;;;18.60;12.27;;;;;;;8.99;74.25;99371.50;5006618;28;20042;-86
2024/03/03 04:57:05;;;;;;;20.65;13.52;;;;;;;8.95;74.32;99376.25;5004512;28;20104;-86
2024/03/03 04:59:50;;;;;;;20.27;13.40;;;;;;;8.93;74.79;99366.84;4985539;28;20055;-86
2024/03/03 05:02:22;;;;;;;20.70;12.73;;;;;;;8.92;74.49;99365.19;4992871;28;20050;-86
2024/03/03 05:04:51;;;;;;;23.80;13.80;;;;;;;8.94;74.81;99371.97;5013291;28;20042;-85
2024/03/03 05:07:18;;;;;;;22.45;13.90;;;;;;;8.94;74.72;99379.91;5013222;28;20050;-86
2024/03/03 05:09:57;;;;;;;19.17;14.38;;;;;;;8.89;75.14;99376.91;5013734;28;20046;-85
2024/03/03 05:12:39;;;;;;;26.00;14.13;;;;;;;8.91;74.97;99384.66;5012894;28;20054;-84
2024/03/03 05:15:12;;;;;;;21.92;14.40;;;;;;;8.89;75.42;99381.34;5007359;28;20050;-83
2024/03/03 05:17:39;;;;;;;21.67;13.85;;;;;;;8.88;75.17;99388.41;5005734;23;20046;-77
2024/03/03 05:20:08;;;;;;;22.17;13.90;;;;;;;8.89;75.49;99403.28;4984291;28;20416;-76
2024/03/03 05:22:36;;;;;;;18.95;13.25;;;;;;;8.93;74.92;99385.31;4991051;28;20050;-76
2024/03/03 05:25:04;;;;;;;22.67;14.02;;;;;;;8.91;75.29;99384.66;4990778;28;20069;-76
2024/03/03 05:27:31;;;;;;;23.98;14.15;;;;;;;8.90;75.22;99389.09;4988388;28;20428;-76
2024/03/03 05:29:57;;;;;;;22.50;14.20;;;;;;;8.87;75.54;99389.41;4992266;28;20393;-76
2024/03/03 05:32:24;;;;;;;22.10;13.52;;;;;;;8.89;75.59;99392.72;4992601;28;20093;-78
2024/03/03 05:34:50;;;;;;;21.15;14.38;;;;;;;8.88;75.41;99400.78;4993974;28;20173;-77
2024/03/03 05:37:18;;;;;;;22.75;14.02;;;;;;;8.88;75.92;99398.97;4996247;28;20042;-77
2024/03/03 05:39:45;;;;;;;21.77;13.88;;;;;;;8.87;75.26;99405.22;4992345;28;20134;-77
2024/03/03 05:42:12;;;;;;;23.20;14.93;;;;;;;8.84;75.92;99406.38;4992406;28;20133;-78
2024/03/03 05:44:39;;;;;;;23.33;13.98;;;;;;;8.85;76.00;99412.47;4992900;28;20085;-78
2024/03/03 05:47:06;;;;;;;20.85;13.82;;;;;;;8.82;75.93;99410.13;4993422;28;20089;-77
2024/03/03 05:49:33;;;;;;;23.88;14.38;;;;;;;8.77;75.88;99409.78;4993648;28;20050;-78
2024/03/03 05:52:00;;;;;;;22.33;14.40;;;;;;;8.76;76.31;99395.75;4995223;28;20113;-78
2024/03/03 05:54:31;;;;;;;24.25;15.23;;;;;;;8.71;76.54;99405.13;4993452;28;20496;-77
2024/03/03 05:56:57;;;;;;;22.42;14.38;;;;;;;8.66;76.88;99410.00;4994183;28;20126;-78
2024/03/03 05:59:24;;;;;;;24.85;15.15;;;;;;;8.64;77.00;99406.69;4995891;28;20177;-78
2024/03/03 06:01:53;;;;;;;22.45;15.07;;;;;;;8.63;76.85;99405.88;4997134;28;20085;-77
2024/03/03 06:04:19;;;;;;;21.75;14.52;;;;;;;8.60;77.09;99406.16;4997874;28;20488;-77
2024/03/03 06:06:47;;;;;;;22.63;15.35;;;;;;;8.58;76.91;99400.22;5000592;28;20481;-78
2024/03/03 06:09:16;;;;;;;23.48;14.40;;;;;;;8.60;76.72;99401.72;5000335;28;20468;-77
2024/03/03 06:11:44;;;;;;;26.77;15.18;;;;;;;8.64;76.56;99402.25;5006772;28;20047;-77
2024/03/03 06:14:14;;;;;;;24.05;14.77;;;;;;;8.64;76.72;99396.97;5008972;28;20050;-78
2024/03/03 06:16:41;;;;;;;22.85;14.73;;;;;;;8.64;76.25;99398.78;5008670;28;20140;-78
2024/03/03 06:19:08;;;;;;;21.20;13.90;;;;;;;8.66;76.01;99404.72;5000774;28;20046;-77
2024/03/03 06:21:35;;;;;;;22.95;14.10;;;;;;;8.69;76.37;99391.22;4996987;28;20074;-78
2024/03/03 06:24:01;;;;;;;22.70;14.05;;;;;;;8.70;76.05;99396.34;4995670;28;20113;-79
2024/03/03 06:26:30;;;;;;;20.90;13.15;;;;;;;8.72;76.04;99390.94;4994992;28;20145;-78
2024/03/03 06:28:58;;;;;;;21.55;14.40;;;;;;;8.74;76.11;99370.50;4996033;28;20483;-77
2024/03/03 06:31:25;;;;;;;21.95;13.88;;;;;;;8.78;75.78;99375.31;4997258;28;20058;-78
2024/03/03 06:33:52;;;;;;;21.52;13.70;;;;;;;8.82;75.86;99375.84;4998438;28;20050;-78
2024/03/03 06:36:19;;;;;;;20.73;12.73;;;;;;;8.81;75.75;99382.09;4999334;28;20104;-78
2024/03/03 06:38:46;;;;;;;21.35;13.25;;;;;;;8.82;75.65;99387.22;5001902;28;20046;-77
2024/03/03 06:41:13;;;;;;;20.85;13.63;;;;;;;8.80;75.75;99383.09;4999988;28;20085;-78
2024/03/03 06:43:41;;;;;;;21.20;13.05;;;;;;;8.77;76.23;99394.75;5003017;28;20094;-77
2024/03/03 06:46:09;;;;;;;22.95;13.65;;;;;;;8.80;75.45;99398.91;4999214;28;20105;-78
2024/03/03 06:48:35;;;;;;;21.80;13.63;;;;;;;8.80;75.68;99396.28;4996245;28;20424;-76
2024/03/03 06:51:02;;;;;;;19.45;13.25;;;;;;;8.82;76.05;99391.66;4995886;28;20046;-77
2024/03/03 06:53:29;;;;;;;21.02;14.07;;;;;;;8.84;75.87;99402.91;4995322;28;20153;-77
2024/03/03 06:55:56;;;;;;;22.25;13.77;;;;;;;8.84;75.82;99413.47;4994868;28;20105;-77
2024/03/03 06:58:22;;;;;;;22.88;14.88;;;;;;;8.85;76.16;99413.31;4995823;28;20065;-76
2024/03/03 07:00:49;;;;;;;20.50;14.02;;;;;;;8.94;75.37;99423.94;4995306;28;20625;-78
2024/03/03 07:03:38;;;;;;;19.35;13.25;;;;;;;8.93;75.52;99416.97;4998764;28;20097;-77
2024/03/03 07:06:06;;;;;;;22.42;13.65;;;;;;;8.94;75.92;99423.94;5003837;28;20060;-78
2024/03/03 07:08:32;;;;;;;20.95;13.38;;;;;;;8.91;76.08;99417.13;4999387;28;20057;-78
2024/03/03 07:11:02;;;;;;;21.92;13.18;;;;;;;8.98;76.01;99422.63;4994261;28;20109;-76
2024/03/03 07:13:29;;;;;;;21.67;13.98;;;;;;;8.96;75.88;99430.69;4994244;28;20054;-77
2024/03/03 07:15:55;;;;;;;22.13;14.18;;;;;;;8.98;76.34;99434.00;5001063;28;20077;-78
2024/03/03 07:18:23;;;;;;;19.80;13.90;;;;;;;9.00;76.34;99442.59;5001708;28;20086;-78
2024/03/03 07:20:50;;;;;;;18.63;13.63;;;;;;;9.11;75.67;99450.28;5001888;28;20100;-78
2024/03/03 07:23:17;;;;;;;21.85;14.40;;;;;;;9.19;75.73;99446.84;5002219;28;20073;-78
2024/03/03 07:25:44;;;;;;;20.38;14.70;;;;;;;9.24;75.55;99444.59;5003664;28;20118;-78
2024/03/03 07:28:11;;;;;;;19.10;13.30;;;;;;;9.34;75.24;99447.13;5001691;28;20050;-78
2024/03/03 07:30:37;;;;;;;22.58;14.38;;;;;;;9.36;75.75;99442.50;4998345;28;20077;-78
2024/03/03 07:33:04;;;;;;;20.45;13.10;;;;;;;9.54;74.71;99438.00;4996533;28;20054;-78
2024/03/03 07:35:32;;;;;;;20.58;13.77;;;;;;;9.49;74.39;99440.28;4990898;28;20129;-78
2024/03/03 07:38:00;;;;;;;19.92;13.65;;;;;;;9.43;74.59;99433.00;4998122;28;20109;-79
2024/03/03 07:40:27;;;;;;;20.17;14.18;;;;;;;9.48;73.74;99425.44;4997707;28;20046;-78
2024/03/03 07:42:54;;;;;;;19.60;13.73;;;;;;;9.47;73.96;99434.34;4995778;28;20552;-78
2024/03/03 07:45:21;;;;;;;21.33;14.35;;;;;;;9.47;74.06;99429.06;4998732;28;20056;-78
2024/03/03 07:47:47;;;;;;;19.92;13.27;;;;;;;9.54;74.04;99432.72;5001797;28;20088;-78
2024/03/03 07:50:14;;;;;;;20.65;13.85;;;;;;;9.59;73.78;99442.81;5004340;28;20590;-78
2024/03/03 07:52:42;;;;;;;21.08;13.93;;;;;;;9.61;73.53;99451.41;4997114;28;20142;-78
2024/03/03 07:55:09;;;;;;;20.75;13.48;;;;;;;9.62;74.11;99456.53;4994413;28;20141;-77
2024/03/03 07:57:37;;;;;;;19.00;13.07;;;;;;;9.57;73.64;99458.81;4999377;28;20153;-78
2024/03/03 08:00:06;;;;;;;19.92;13.50;;;;;;;9.70;73.44;99466.31;4998987;28;20053;-78
2024/03/03 08:02:33;;;;;;;19.35;13.40;;;;;;;9.78;73.13;99468.19;4986884;28;20054;-77
2024/03/03 08:05:00;;;;;;;21.48;13.77;;;;;;;9.98;72.73;99466.94;4994791;28;20137;-78
2024/03/03 08:07:28;;;;;;;19.15;13.85;;;;;;;10.16;72.06;99460.72;4994091;28;20085;-77
2024/03/03 08:09:56;;;;;;;22.50;15.02;;;;;;;10.17;72.63;99467.66;4998129;28;20436;-78
2024/03/03 08:12:23;;;;;;;23.27;14.52;;;;;;;10.11;72.16;99464.69;4996275;28;20051;-78
2024/03/03 08:14:50;;;;;;;23.10;13.90;;;;;;;10.28;71.83;99464.78;4995867;28;20050;-78
2024/03/03 08:17:16;;;;;;;20.50;13.68;;;;;;;10.34;71.83;99461.47;4999650;28;20555;-80
2024/03/03 08:19:43;;;;;;;22.15;13.90;;;;;;;10.23;72.57;99467.03;4999396;28;20081;-80
2024/03/03 08:22:10;;;;;;;21.13;14.23;;;;;;;10.20;72.72;99470.00;4999374;28;20133;-79
2024/03/03 08:24:36;;;;;;;20.77;13.55;;;;;;;10.18;72.36;99469.31;5000237;28;20508;-79
2024/03/03 08:27:05;;;;;;;22.60;15.38;;;;;;;10.18;71.85;99472.81;4999174;28;20104;-78
2024/03/03 08:29:31;;;;;;;20.20;14.07;;;;;;;10.41;71.54;99473.06;5004801;28;20520;-78
2024/03/03 08:31:58;;;;;;;22.42;14.30;;;;;;;10.65;70.15;99466.16;5008349;28;20085;-78
2024/03/03 08:34:25;;;;;;;22.20;13.82;;;;;;;10.75;69.92;99464.19;5002036;28;20634;-79
2024/03/03 08:36:51;;;;;;;20.35;13.88;;;;;;;10.78;71.01;99463.88;5000780;28;20126;-79
2024/03/03 08:39:19;;;;;;;18.65;12.93;;;;;;;10.93;69.86;99475.44;4999728;28;20219;-79
2024/03/03 08:41:46;;;;;;;21.33;13.98;;;;;;;10.79;70.18;99476.94;5003772;28;20114;-79
2024/03/03 08:44:14;;;;;;;18.70;13.95;;;;;;;10.79;69.18;99462.88;4999026;28;20510;-79
2024/03/03 08:46:41;;;;;;;22.27;14.93;;;;;;;10.66;68.95;99473.09;4998767;28;20082;-78
2024/03/03 08:49:10;;;;;;;21.20;14.25;;;;;;;10.67;68.73;99480.91;4998542;28;20106;-78
2024/03/03 08:51:38;;;;;;;24.20;14.50;;;;;;;10.81;68.96;99482.09;4999855;28;20389;-79
2024/03/03 08:54:05;;;;;;;19.13;14.10;;;;;;;10.95;67.93;99484.06;4995268;28;20061;-78
2024/03/03 08:56:32;;;;;;;18.23;13.77;;;;;;;10.79;68.78;99481.41;4999378;28;20052;-79
2024/03/03 08:58:58;;;;;;;25.23;14.73;;;;;;;10.86;68.63;99485.88;4999748;28;20081;-78
2024/03/03 09:01:26;;;;;;;19.95;13.93;;;;;;;10.77;69.33;99480.75;5002482;28;20750;-78
2024/03/03 09:03:53;;;;;;;20.10;14.55;;;;;;;10.74;68.82;99483.72;4999392;28;20118;-79
2024/03/03 09:06:23;;;;;;;22.08;14.20;;;;;;;10.68;69.30;99479.91;4998277;28;20042;-78
2024/03/03 09:08:50;;;;;;;21.00;14.23;;;;;;;10.62;68.96;99488.47;5000045;28;20496;-79
2024/03/03 09:11:16;;;;;;;21.02;14.50;;;;;;;10.72;68.38;99489.19;4997191;28;20074;-78
2024/03/03 09:13:43;;;;;;;21.00;14.20;;;;;;;10.88;67.93;99483.88;4997001;28;20085;-78
2024/03/03 09:16:12;;;;;;;20.85;14.90;;;;;;;10.90;67.67;99486.38;5000586;28;20069;-79
2024/03/03 09:18:44;;;;;;;21.75;14.18;;;;;;;11.02;67.54;99478.94;5004658;28;20042;-78
2024/03/03 09:21:11;;;;;;;22.48;14.43;;;;;;;11.19;67.41;99482.41;5001935;28;20046;-79
2024/03/03 09:23:39;;;;;;;21.17;14.77;;;;;;;11.27;66.64;99477.09;4998228;28;20054;-78
2024/03/03 09:26:06;;;;;;;19.83;13.90;;;;;;;11.45;66.67;99475.09;4997691;28;20487;-78
2024/03/03 09:28:33;;;;;;;18.73;14.15;;;;;;;11.39;66.12;99475.78;4999460;28;20050;-79
2024/03/03 09:30:59;;;;;;;18.30;13.93;;;;;;;11.36;65.85;99452.25;5004940;28;20046;-77
2024/03/03 09:33:26;;;;;;;21.77;14.77;;;;;;;11.45;65.43;99459.19;4998040;28;20085;-80
2024/03/03 09:35:54;;;;;;;21.58;14.18;;;;;;;11.58;65.74;99454.22;4999212;28;20086;-77
2024/03/03 09:38:20;;;;;;;22.27;14.65;;;;;;;11.53;65.38;99445.94;5000066;28;20134;-79
2024/03/03 09:40:47;;;;;;;20.98;14.13;;;;;;;11.60;65.07;99452.19;5000460;28;20085;-78
2024/03/03 09:43:16;;;;;;;20.63;13.95;;;;;;;11.54;64.99;99450.25;4998911;28;20137;-80
2024/03/03 09:45:44;;;;;;;22.15;14.85;;;;;;;11.66;65.21;99447.25;5000096;28;20057;-77
2024/03/03 09:48:13;;;;;;;21.13;14.63;;;;;;;11.55;65.02;99449.22;5005289;28;20074;-78
2024/03/03 09:50:39;;;;;;;20.20;13.43;;;;;;;11.53;64.79;99440.66;5013542;28;20081;-77
2024/03/03 09:53:09;;;;;;;19.45;13.98;;;;;;;11.60;64.14;99430.19;5007187;28;20051;-77
2024/03/03 09:55:38;;;;;;;18.40;13.68;;;;;;;11.84;63.91;99437.28;5005948;28;20084;-78
2024/03/03 09:58:08;;;;;;;19.05;13.35;;;;;;;12.02;63.49;99423.78;5004977;28;20050;-77
2024/03/03 10:00:35;;;;;;;18.70;13.73;;;;;;;11.98;63.69;99433.06;5002825;28;20137;-78
2024/03/03 10:03:03;;;;;;;18.63;13.80;;;;;;;11.99;63.22;99429.41;5009273;28;20069;-78
2024/03/03 10:05:31;;;;;;;19.42;13.00;;;;;;;12.23;61.97;99437.22;5001138;28;20484;-77
2024/03/03 10:08:01;;;;;;;20.17;14.10;;;;;;;12.25;62.62;99439.72;5009196;28;20081;-78
2024/03/03 10:10:33;;;;;;;25.17;14.30;;;;;;;12.18;62.96;99442.22;5006673;28;20074;-78
2024/03/03 10:13:02;;;;;;;19.67;13.50;;;;;;;12.34;61.58;99444.81;5000948;28;20592;-78
2024/03/03 10:15:30;;;;;;;18.77;13.85;;;;;;;12.34;61.87;99438.69;4998173;28;20568;-77
2024/03/03 10:17:57;;;;;;;19.70;13.70;;;;;;;12.49;61.51;99425.47;4997361;28;20055;-79
2024/03/03 10:20:26;;;;;;;20.20;13.07;;;;;;;12.58;61.15;99419.09;4996249;28;20669;-77
2024/03/03 10:22:53;;;;;;;19.13;13.55;;;;;;;12.52;61.22;99415.34;4996019;28;20046;-78
2024/03/03 10:25:21;;;;;;;20.65;13.90;;;;;;;12.87;61.08;99407.78;5000213;28;20429;-77
2024/03/03 10:27:51;;;;;;;21.60;14.93;;;;;;;12.89;59.97;99403.09;4997831;28;20540;-77
2024/03/03 10:30:22;;;;;;;19.75;13.35;;;;;;;13.13;60.00;99397.59;4997955;28;20428;-78
2024/03/03 10:32:49;;;;;;;19.25;13.75;;;;;;;13.09;59.54;99388.31;4998508;28;20085;-77
2024/03/03 10:35:18;;;;;;;20.55;13.88;;;;;;;12.80;60.42;99385.59;4998738;28;20082;-78
2024/03/03 10:37:58;;;;;;;24.15;14.02;;;;;;;12.60;60.39;99386.09;4998234;28;20057;-79
2024/03/03 10:40:25;;;;;;;20.25;14.18;;;;;;;12.72;60.88;99385.66;5001597;28;20046;-78
2024/03/03 10:42:53;;;;;;;19.65;13.70;;;;;;;12.78;61.28;99387.63;4998786;28;20122;-78
2024/03/03 10:45:20;;;;;;;19.98;14.10;;;;;;;12.82;60.87;99389.72;4997907;28;20133;-78
2024/03/03 10:47:48;;;;;;;21.17;14.10;;;;;;;12.83;60.61;99394.03;5000105;28;20089;-78
2024/03/03 10:50:16;;;;;;;24.05;14.18;;;;;;;12.88;60.63;99396.16;4998997;28;20059;-78
2024/03/03 10:52:44;;;;;;;21.05;14.15;;;;;;;12.92;60.38;99389.47;5000883;28;20118;-79
2024/03/03 10:55:12;;;;;;;18.98;13.07;;;;;;;13.22;59.93;99397.50;5001218;28;20050;-79
2024/03/03 10:57:40;;;;;;;19.50;13.57;;;;;;;13.53;58.37;99386.75;5000358;28;20062;-79
2024/03/03 11:00:14;;;;;;;19.65;13.43;;;;;;;13.79;57.94;99386.25;4999404;28;20088;-78
2024/03/03 11:02:42;;;;;;;18.52;13.95;;;;;;;13.63;58.11;99388.09;5000589;28;20061;-78
2024/03/03 11:05:13;;;;;;;17.02;12.77;;;;;;;14.19;56.72;99376.06;5002456;28;20073;-79
2024/03/03 11:07:43;;;;;;;19.48;13.50;;;;;;;13.91;56.69;99390.09;5005416;28;20121;-79
2024/03/03 11:10:10;;;;;;;21.17;14.77;;;;;;;13.84;57.59;99383.84;5007758;28;20054;-80
2024/03/03 11:12:40;;;;;;;19.60;13.35;;;;;;;14.05;56.64;99364.47;5007025;28;20081;-80
2024/03/03 11:15:13;;;;;;;19.27;13.70;;;;;;;14.25;57.03;99373.50;5000342;28;20461;-78
2024/03/03 11:18:20;;;;;;;19.83;14.48;;;;;;;14.35;55.52;99366.00;5021693;23;20122;-81
2024/03/03 11:20:53;;;;;;;19.58;14.15;;;;;;;14.34;55.51;99359.06;4961358;28;20093;-79
2024/03/03 11:23:21;;;;;;;20.48;14.45;;;;;;;14.72;54.40;99356.13;4991452;28;20038;-81
2024/03/03 11:25:59;;;;;;;18.58;13.30;;;;;;;15.13;53.37;99358.94;4988703;28;20046;-83
2024/03/03 11:28:28;;;;;;;20.27;13.68;;;;;;;14.84;54.01;99356.44;4979882;28;20069;-80